Time;durP1;ratioP1;P1;durP2;ratioP2;P2;SDS_P1;SDS_P2;PMS_P1;PMS_P2;Temp;Humidity;BMP_temperature;BMP_pressure;BME280_temperature;BME280_humidity;BME280_pressure;Samples;Min_cycle;Max_cycle;Signal;HPM_P1;HPM_P2
2023/08/07 00:00:42;;;;;;;1.42;0.95;;;17.60;72.40;;;;;;4903485;29;20047;-79
2023/08/07 00:03:07;;;;;;;0.85;0.80;;;17.60;72.30;;;;;;4903086;29;20116;-78
2023/08/07 00:05:33;;;;;;;1.08;1.00;;;17.60;72.40;;;;;;4903394;29;20115;-80
2023/08/07 00:07:59;;;;;;;0.93;0.88;;;17.60;72.40;;;;;;4904011;29;20063;-79
2023/08/07 00:10:25;;;;;;;1.27;0.90;;;17.60;72.40;;;;;;4902922;29;20029;-79
2023/08/07 00:12:51;;;;;;;1.23;0.98;;;17.60;72.40;;;;;;4902928;29;20111;-79
2023/08/07 00:15:17;;;;;;;1.77;1.02;;;17.60;72.30;;;;;;4903011;29;20464;-79
2023/08/07 00:17:42;;;;;;;1.15;1.00;;;17.60;72.40;;;;;;4887185;29;20047;-79
2023/08/07 00:20:08;;;;;;;1.55;1.00;;;17.60;72.40;;;;;;4903311;29;20116;-81
2023/08/07 00:22:34;;;;;;;1.58;1.00;;;17.60;72.40;;;;;;4902582;29;20053;-80
2023/08/07 00:25:00;;;;;;;1.55;0.93;;;17.60;72.40;;;;;;4887689;29;20061;-79
2023/08/07 00:27:26;;;;;;;1.48;1.02;;;17.50;72.40;;;;;;4902964;29;20032;-79
2023/08/07 00:29:52;;;;;;;0.85;0.80;;;17.50;72.40;;;;;;4919337;29;20522;-79
2023/08/07 00:32:18;;;;;;;1.85;1.17;;;17.50;72.40;;;;;;4902570;29;20044;-78
2023/08/07 00:34:43;;;;;;;0.73;0.70;;;17.50;72.40;;;;;;4887128;29;20037;-79
2023/08/07 00:37:09;;;;;;;1.25;0.90;;;17.50;73.00;;;;;;4900938;29;20040;-79
2023/08/07 00:39:35;;;;;;;1.90;0.98;;;17.50;72.40;;;;;;4899937;29;20088;-79
2023/08/07 00:42:01;;;;;;;1.02;0.80;;;17.50;72.40;;;;;;4899462;29;20068;-79
2023/08/07 00:44:26;;;;;;;0.90;0.80;;;17.50;72.40;;;;;;4900160;29;20037;-80
2023/08/07 00:46:52;;;;;;;2.08;0.88;;;17.50;72.40;;;;;;4899750;29;20453;-81
2023/08/07 00:49:20;;;;;;;1.60;1.00;;;17.50;72.40;;;;;;4883960;29;20056;-79
2023/08/07 00:51:46;;;;;;;0.73;0.73;;;17.50;72.50;;;;;;4915061;29;20044;-80
2023/08/07 00:54:18;;;;;;;1.25;0.90;;;17.50;72.50;;;;;;4899315;29;20033;-80
2023/08/07 00:56:44;;;;;;;1.30;0.93;;;17.50;72.50;;;;;;4899884;29;20029;-79
2023/08/07 00:59:10;;;;;;;1.90;0.95;;;17.50;72.50;;;;;;4914965;29;20399;-79
2023/08/07 01:01:36;;;;;;;1.52;1.00;;;17.50;72.50;;;;;;4899425;29;20060;-79
2023/08/07 01:04:02;;;;;;;1.70;1.00;;;17.40;72.40;;;;;;4901197;29;20028;-79
2023/08/07 01:06:28;;;;;;;1.60;0.95;;;17.50;72.50;;;;;;4915100;29;20442;-79
2023/08/07 01:08:54;;;;;;;1.20;1.05;;;17.40;72.50;;;;;;4901051;29;20065;-79
2023/08/07 01:11:48;;;;;;;1.42;0.88;;;17.40;72.50;;;;;;4900224;29;20063;-79
2023/08/07 01:14:38;;;;;;;1.52;0.98;;;17.40;72.60;;;;;;4900793;29;20133;-79
2023/08/07 01:17:04;;;;;;;1.40;0.82;;;17.40;72.60;;;;;;4900566;29;20041;-79
2023/08/07 01:19:31;;;;;;;1.35;0.98;;;17.40;72.50;;;;;;4898898;29;20035;-80
2023/08/07 01:22:15;;;;;;;1.02;0.80;;;17.40;72.50;;;;;;4900591;29;20055;-80
2023/08/07 01:24:47;;;;;;;0.98;0.80;;;17.40;72.60;;;;;;4899859;29;20032;-79
2023/08/07 01:27:18;;;;;;;1.10;1.00;;;17.40;72.50;;;;;;4899904;29;20480;-80
2023/08/07 01:29:50;;;;;;;1.02;0.90;;;17.40;72.60;;;;;;4898969;29;20037;-80
2023/08/07 01:32:24;;;;;;;1.02;0.95;;;17.40;72.60;;;;;;4898884;29;20036;-79
2023/08/07 01:34:52;;;;;;;1.97;1.00;;;17.40;72.60;;;;;;4900475;29;20067;-79
2023/08/07 01:37:20;;;;;;;1.30;1.10;;;17.40;72.60;;;;;;4898555;29;20555;-79
2023/08/07 01:39:46;;;;;;;1.27;0.90;;;17.40;72.60;;;;;;4883190;29;20474;-79
2023/08/07 01:42:12;;;;;;;2.78;1.10;;;17.30;72.50;;;;;;4898233;29;20074;-79
2023/08/07 01:44:38;;;;;;;1.30;1.05;;;17.30;72.50;;;;;;4899683;29;20047;-79
2023/08/07 01:47:04;;;;;;;1.52;1.00;;;17.30;72.50;;;;;;4882144;29;20069;-79
2023/08/07 01:49:30;;;;;;;2.25;1.20;;;17.30;72.60;;;;;;4883078;29;20490;-79
2023/08/07 01:51:55;;;;;;;1.15;0.93;;;17.30;72.60;;;;;;4898901;29;20050;-79
2023/08/07 01:54:21;;;;;;;1.88;1.10;;;17.30;72.80;;;;;;4883309;29;20389;-80
2023/08/07 01:56:47;;;;;;;1.13;0.98;;;17.30;72.60;;;;;;4899413;29;20546;-79
2023/08/07 01:59:12;;;;;;;1.38;1.00;;;17.30;72.60;;;;;;4899580;29;20041;-78
2023/08/07 02:01:38;;;;;;;1.70;1.00;;;17.30;72.60;;;;;;4898869;29;20048;-79
2023/08/07 02:04:04;;;;;;;2.83;1.17;;;17.30;72.60;;;;;;4899022;29;20060;-78
2023/08/07 02:06:30;;;;;;;2.03;1.30;;;17.30;72.60;;;;;;4914362;29;20040;-80
2023/08/07 02:08:56;;;;;;;1.83;1.15;;;17.30;72.60;;;;;;4882659;29;20466;-79
2023/08/07 02:11:21;;;;;;;1.85;1.10;;;17.30;72.60;;;;;;4898248;29;20108;-79
2023/08/07 02:13:48;;;;;;;1.55;1.10;;;17.30;72.60;;;;;;4898127;29;20478;-80
2023/08/07 02:16:14;;;;;;;2.15;1.10;;;17.30;72.60;;;;;;4898643;29;20099;-80
2023/08/07 02:18:40;;;;;;;1.77;1.05;;;17.30;72.60;;;;;;4898187;29;20382;-79
2023/08/07 02:21:06;;;;;;;2.47;1.33;;;17.20;72.60;;;;;;4913335;29;20088;-79
2023/08/07 02:23:32;;;;;;;1.30;0.90;;;17.30;72.60;;;;;;4897940;29;20372;-79
2023/08/07 02:26:00;;;;;;;2.00;1.10;;;17.20;72.60;;;;;;4882926;29;20076;-79
2023/08/07 02:28:25;;;;;;;2.13;1.10;;;17.20;72.60;;;;;;4882584;29;20057;-78
2023/08/07 02:30:53;;;;;;;1.67;1.15;;;17.20;72.60;;;;;;4897898;29;20036;-80
2023/08/07 02:33:19;;;;;;;2.53;1.10;;;17.20;72.60;;;;;;4897694;29;20533;-79
2023/08/07 02:35:45;;;;;;;1.92;1.17;;;17.20;72.60;;;;;;4897778;29;20032;-79
2023/08/07 02:38:11;;;;;;;1.58;1.10;;;17.20;72.60;;;;;;4913322;29;20037;-79
2023/08/07 02:40:37;;;;;;;2.08;1.25;;;17.20;72.70;;;;;;4913392;29;20478;-79
2023/08/07 02:43:03;;;;;;;2.00;1.15;;;17.20;72.60;;;;;;4897591;29;20490;-79
2023/08/07 02:45:29;;;;;;;3.22;1.27;;;17.20;72.60;;;;;;4914134;29;20032;-78
2023/08/07 02:47:54;;;;;;;1.40;1.10;;;17.20;72.60;;;;;;4897593;29;20375;-79
2023/08/07 02:50:20;;;;;;;2.65;1.35;;;17.20;72.60;;;;;;4897317;29;20425;-78
2023/08/07 02:52:46;;;;;;;1.30;1.08;;;17.20;72.60;;;;;;4897545;29;20054;-79
2023/08/07 02:55:12;;;;;;;2.20;1.23;;;17.20;72.60;;;;;;4882301;29;20378;-78
2023/08/07 02:57:37;;;;;;;1.85;1.25;;;17.20;72.60;;;;;;4912885;29;20060;-79
2023/08/07 03:00:04;;;;;;;1.55;1.15;;;17.20;72.60;;;;;;4882299;29;20213;-79
2023/08/07 03:02:30;;;;;;;2.17;1.42;;;17.20;72.60;;;;;;4897494;29;20058;-79
2023/08/07 03:04:55;;;;;;;3.30;1.40;;;17.20;72.60;;;;;;4897911;29;20530;-78
2023/08/07 03:07:21;;;;;;;2.20;1.30;;;17.20;72.60;;;;;;4898031;29;20462;-79
2023/08/07 03:09:47;;;;;;;2.38;1.33;;;17.20;72.60;;;;;;4897066;29;20482;-79
2023/08/07 03:12:13;;;;;;;2.15;1.15;;;17.10;72.60;;;;;;4897454;29;20087;-79
2023/08/07 03:14:39;;;;;;;2.08;1.17;;;17.20;72.60;;;;;;4881615;29;20032;-80
2023/08/07 03:17:05;;;;;;;1.63;1.25;;;17.20;72.60;;;;;;4881702;29;20064;-81
2023/08/07 03:19:30;;;;;;;2.50;1.27;;;17.20;72.60;;;;;;4896966;29;20067;-80
2023/08/07 03:21:56;;;;;;;1.98;1.23;;;17.20;72.60;;;;;;4865747;29;20076;-79
2023/08/07 03:24:22;;;;;;;2.55;1.35;;;17.20;72.60;;;;;;4882485;29;20028;-79
2023/08/07 03:26:49;;;;;;;1.67;1.10;;;17.10;72.60;;;;;;4897786;29;20040;-79
2023/08/07 03:29:15;;;;;;;2.65;1.25;;;17.10;72.60;;;;;;4897178;29;20071;-79
2023/08/07 03:31:41;;;;;;;2.67;1.25;;;17.10;72.60;;;;;;4912624;29;20482;-79
2023/08/07 03:34:07;;;;;;;2.38;1.40;;;17.10;72.60;;;;;;4897114;29;20168;-79
2023/08/07 03:36:33;;;;;;;1.52;1.20;;;17.10;72.70;;;;;;4881435;29;20048;-79
2023/08/07 03:38:59;;;;;;;1.20;1.10;;;17.10;72.60;;;;;;4897036;29;20041;-79
2023/08/07 03:41:25;;;;;;;1.48;1.15;;;17.10;72.60;;;;;;4896645;29;20044;-79
2023/08/07 03:43:51;;;;;;;1.27;1.10;;;17.10;73.30;;;;;;4881936;29;20048;-80
2023/08/07 03:46:17;;;;;;;1.35;1.10;;;17.10;72.70;;;;;;4898223;29;20021;-79
2023/08/07 03:48:43;;;;;;;3.05;1.40;;;17.10;72.70;;;;;;4897036;29;20088;-80
2023/08/07 03:51:10;;;;;;;2.00;1.10;;;17.10;72.70;;;;;;4897398;29;20044;-80
2023/08/07 03:53:46;;;;;;;1.52;1.20;;;17.10;72.70;;;;;;4897710;29;20081;-79
2023/08/07 03:56:12;;;;;;;1.60;1.10;;;17.10;72.70;;;;;;4896864;29;20036;-79
2023/08/07 03:58:38;;;;;;;2.45;1.30;;;17.10;72.70;;;;;;4882047;29;20036;-79
2023/08/07 04:01:04;;;;;;;1.52;1.30;;;17.10;72.70;;;;;;4896911;29;20032;-78
2023/08/07 04:03:31;;;;;;;2.05;1.15;;;17.10;72.70;;;;;;4896710;29;20450;-79
2023/08/07 04:05:56;;;;;;;1.48;1.00;;;17.10;72.70;;;;;;4897530;29;20040;-79
2023/08/07 04:08:23;;;;;;;1.10;1.00;;;17.10;72.70;;;;;;4896756;29;20033;-78
2023/08/07 04:11:03;;;;;;;1.85;1.25;;;17.00;72.70;;;;;;4882405;29;20040;-79
2023/08/07 04:13:30;;;;;;;1.85;1.40;;;17.10;72.80;;;;;;4900662;29;20486;-79
2023/08/07 04:15:56;;;;;;;1.10;1.02;;;17.10;72.70;;;;;;4900318;29;20119;-79
2023/08/07 04:18:22;;;;;;;1.30;1.20;;;17.00;72.60;;;;;;4885305;29;20075;-79
2023/08/07 04:20:53;;;;;;;1.60;1.20;;;17.10;72.70;;;;;;4884660;29;20140;-78
2023/08/07 04:23:20;;;;;;;1.20;1.10;;;17.10;72.70;;;;;;4900467;29;20088;-79
2023/08/07 04:25:47;;;;;;;2.65;1.20;;;17.10;72.70;;;;;;4899893;29;20036;-80
2023/08/07 04:28:13;;;;;;;1.90;1.20;;;17.00;72.70;;;;;;4899767;29;20036;-79
2023/08/07 04:30:39;;;;;;;2.20;1.38;;;17.10;72.70;;;;;;4899996;29;20021;-78
2023/08/07 04:33:05;;;;;;;2.05;1.17;;;17.10;72.70;;;;;;4899857;29;20037;-79
2023/08/07 04:35:31;;;;;;;1.95;1.20;;;17.10;72.70;;;;;;4884362;29;20422;-79
2023/08/07 04:37:57;;;;;;;1.27;1.10;;;17.10;72.70;;;;;;4899665;29;20393;-79
2023/08/07 04:40:23;;;;;;;1.52;1.13;;;17.10;72.70;;;;;;4900273;29;20085;-78
2023/08/07 04:42:49;;;;;;;1.63;1.25;;;17.10;72.80;;;;;;4884707;29;20043;-79
2023/08/07 04:45:15;;;;;;;1.83;1.15;;;17.10;72.80;;;;;;4900149;29;20513;-80
2023/08/07 04:47:41;;;;;;;1.35;1.25;;;17.00;72.70;;;;;;4901219;29;20032;-80
2023/08/07 04:50:08;;;;;;;1.50;1.25;;;17.00;72.70;;;;;;4900164;29;20455;-79
2023/08/07 04:52:34;;;;;;;3.97;1.20;;;17.00;72.70;;;;;;4901271;29;20044;-80
2023/08/07 04:55:00;;;;;;;1.70;1.10;;;17.00;72.80;;;;;;4900579;29;20040;-82
2023/08/07 04:57:26;;;;;;;1.40;1.30;;;17.00;72.70;;;;;;4899440;29;20029;-81
2023/08/07 04:59:52;;;;;;;2.42;1.35;;;17.00;72.70;;;;;;4899497;29;20132;-79
2023/08/07 05:02:19;;;;;;;1.20;1.10;;;17.00;72.80;;;;;;4899218;29;20092;-78
2023/08/07 05:04:45;;;;;;;1.92;1.20;;;17.00;72.80;;;;;;4900658;29;20059;-79
2023/08/07 05:07:11;;;;;;;2.33;1.30;;;17.00;72.80;;;;;;4900361;29;20120;-77
2023/08/07 05:09:37;;;;;;;1.55;1.17;;;17.00;72.80;;;;;;4899715;29;20032;-77
2023/08/07 05:12:03;;;;;;;2.08;1.20;;;17.00;72.80;;;;;;4899296;29;20430;-79
2023/08/07 05:14:30;;;;;;;2.15;1.15;;;17.10;72.90;;;;;;4899588;29;20063;-77
2023/08/07 05:16:55;;;;;;;1.70;1.38;;;17.00;72.80;;;;;;4899254;29;20033;-77
2023/08/07 05:19:21;;;;;;;2.08;1.23;;;17.00;72.80;;;;;;4898919;29;20040;-77
2023/08/07 05:21:51;;;;;;;1.92;1.10;;;17.00;72.80;;;;;;4898562;29;20057;-77
2023/08/07 05:24:17;;;;;;;2.50;1.33;;;17.00;72.80;;;;;;4915607;29;20032;-75
2023/08/07 05:26:43;;;;;;;2.22;1.25;;;17.00;72.80;;;;;;4900420;29;20167;-76
2023/08/07 05:29:09;;;;;;;2.00;1.38;;;17.00;72.80;;;;;;4899944;29;20123;-79
2023/08/07 05:31:34;;;;;;;1.40;1.00;;;17.00;72.80;;;;;;4899243;29;20482;-78
2023/08/07 05:34:00;;;;;;;2.00;1.40;;;17.00;72.80;;;;;;4883165;29;20040;-77
2023/08/07 05:36:26;;;;;;;2.30;1.38;;;17.00;72.80;;;;;;4898860;29;20036;-78
2023/08/07 05:38:52;;;;;;;2.85;1.40;;;17.00;72.80;;;;;;4900165;29;20343;-78
2023/08/07 05:41:17;;;;;;;1.20;1.02;;;17.00;72.90;;;;;;4898765;29;20447;-77
2023/08/07 05:43:43;;;;;;;3.03;1.38;;;17.00;72.80;;;;;;4883128;29;20045;-77
2023/08/07 05:46:09;;;;;;;1.77;1.23;;;17.00;72.90;;;;;;4884010;29;20064;-77
2023/08/07 05:48:35;;;;;;;2.67;1.20;;;17.00;72.90;;;;;;4899760;29;20045;-77
2023/08/07 05:51:01;;;;;;;2.20;1.33;;;17.00;72.90;;;;;;4898335;29;20132;-76
2023/08/07 05:53:27;;;;;;;2.00;1.10;;;17.00;72.90;;;;;;4899864;29;20527;-79
2023/08/07 05:55:52;;;;;;;3.45;1.30;;;17.00;72.90;;;;;;4913939;29;20127;-79
2023/08/07 05:58:18;;;;;;;2.20;1.23;;;17.00;72.90;;;;;;4897985;29;20462;-78
2023/08/07 06:00:44;;;;;;;1.65;1.20;;;17.00;72.90;;;;;;4898856;29;20120;-78
2023/08/07 06:03:10;;;;;;;2.17;1.20;;;17.10;73.00;;;;;;4882477;29;20468;-78
2023/08/07 06:05:36;;;;;;;1.70;1.27;;;17.10;73.00;;;;;;4899945;29;20505;-77
2023/08/07 06:08:02;;;;;;;1.88;1.40;;;17.00;72.90;;;;;;4900131;29;20379;-77
2023/08/07 06:10:27;;;;;;;2.67;1.33;;;17.10;73.00;;;;;;4899215;29;20056;-76
2023/08/07 06:12:53;;;;;;;2.60;1.38;;;17.00;72.90;;;;;;4898162;29;20408;-77
2023/08/07 06:15:20;;;;;;;1.60;1.10;;;17.00;72.90;;;;;;4897885;29;20032;-76
2023/08/07 06:17:45;;;;;;;2.45;1.25;;;17.10;73.00;;;;;;4898392;29;20032;-78
2023/08/07 06:20:14;;;;;;;1.77;1.35;;;17.10;73.00;;;;;;4897915;29;20383;-77
2023/08/07 06:22:40;;;;;;;2.80;1.50;;;17.00;72.90;;;;;;4913279;29;20091;-77
2023/08/07 06:25:07;;;;;;;1.35;1.13;;;17.10;73.00;;;;;;4898751;29;20044;-77
2023/08/07 06:27:32;;;;;;;1.73;1.25;;;17.10;73.00;;;;;;4898006;29;20041;-76
2023/08/07 06:29:59;;;;;;;1.55;1.42;;;17.10;73.00;;;;;;4898630;29;20036;-76
2023/08/07 06:32:26;;;;;;;1.98;1.30;;;17.10;73.00;;;;;;4897876;29;20033;-76
2023/08/07 06:34:52;;;;;;;2.22;1.30;;;17.10;73.00;;;;;;4882526;29;20051;-77
2023/08/07 06:37:18;;;;;;;1.75;1.33;;;17.10;73.00;;;;;;4897759;29;20037;-76
2023/08/07 06:39:46;;;;;;;3.22;1.48;;;17.10;73.00;;;;;;4899192;29;20108;-77
2023/08/07 06:42:12;;;;;;;2.17;1.50;;;17.10;73.00;;;;;;4913371;29;20098;-79
2023/08/07 06:44:41;;;;;;;2.58;1.40;;;17.20;73.00;;;;;;4897690;29;20032;-76
2023/08/07 06:47:07;;;;;;;2.40;1.30;;;17.10;73.00;;;;;;4897653;29;20157;-77
2023/08/07 06:49:33;;;;;;;4.03;1.30;;;17.20;73.10;;;;;;4899112;29;20100;-77
2023/08/07 06:51:58;;;;;;;1.83;1.33;;;17.10;73.00;;;;;;4897272;29;20403;-77
2023/08/07 06:54:24;;;;;;;1.60;1.30;;;17.20;73.00;;;;;;4913272;29;20514;-77
2023/08/07 06:56:50;;;;;;;3.00;1.40;;;17.20;73.00;;;;;;4898752;29;20040;-77
2023/08/07 06:59:16;;;;;;;2.30;1.50;;;17.20;73.00;;;;;;4898476;29;20383;-78
2023/08/07 07:01:41;;;;;;;1.38;1.10;;;17.20;73.00;;;;;;4897681;29;20048;-77
2023/08/07 07:04:07;;;;;;;1.42;1.13;;;17.20;73.00;;;;;;4881633;29;20040;-79
2023/08/07 07:06:33;;;;;;;2.10;1.33;;;17.20;73.00;;;;;;4897292;29;20036;-76
2023/08/07 07:08:59;;;;;;;1.75;1.30;;;17.20;73.00;;;;;;4897290;29;20123;-77
2023/08/07 07:11:25;;;;;;;2.15;1.33;;;17.30;73.10;;;;;;4897343;29;20052;-76
2023/08/07 07:13:51;;;;;;;1.90;1.30;;;17.30;73.10;;;;;;4898246;29;20047;-75
2023/08/07 07:16:20;;;;;;;1.73;1.27;;;17.30;73.10;;;;;;4913211;29;20032;-76
2023/08/07 07:18:46;;;;;;;3.05;1.55;;;17.30;73.10;;;;;;4898455;29;20032;-76
2023/08/07 07:21:11;;;;;;;2.15;1.10;;;17.30;73.10;;;;;;4896876;29;20063;-75
2023/08/07 07:23:37;;;;;;;3.75;1.40;;;17.30;73.10;;;;;;4897198;29;20045;-76
2023/08/07 07:26:03;;;;;;;2.25;1.48;;;17.40;73.80;;;;;;4897362;29;20044;-77
2023/08/07 07:28:29;;;;;;;2.15;1.42;;;17.40;73.10;;;;;;4881924;29;20119;-76
2023/08/07 07:30:55;;;;;;;1.92;1.40;;;17.40;73.10;;;;;;4912807;29;20131;-76
2023/08/07 07:33:20;;;;;;;1.65;1.40;;;17.40;73.10;;;;;;4881626;29;20163;-77
2023/08/07 07:35:46;;;;;;;2.13;1.30;;;17.40;73.00;;;;;;4897016;29;20088;-76
2023/08/07 07:38:12;;;;;;;2.28;1.40;;;17.40;73.00;;;;;;4866536;29;20036;-76
2023/08/07 07:40:38;;;;;;;1.58;1.33;;;17.50;73.00;;;;;;4912674;29;20032;-76
2023/08/07 07:43:03;;;;;;;3.22;1.75;;;17.50;73.00;;;;;;4897633;29;20047;-78
2023/08/07 07:45:29;;;;;;;2.60;1.40;;;17.50;73.60;;;;;;4914530;29;20037;-76
2023/08/07 07:47:55;;;;;;;2.20;1.27;;;17.50;73.00;;;;;;4901211;29;20036;-75
2023/08/07 07:50:21;;;;;;;2.55;1.30;;;17.50;72.90;;;;;;4900606;29;20059;-75
2023/08/07 07:52:47;;;;;;;1.65;1.30;;;17.60;73.00;;;;;;4900673;29;20497;-76
2023/08/07 07:55:13;;;;;;;2.17;1.42;;;17.60;73.00;;;;;;4901077;29;20608;-77
2023/08/07 07:57:40;;;;;;;2.95;1.30;;;17.60;72.90;;;;;;4917209;29;20033;-75
2023/08/07 08:00:10;;;;;;;2.92;1.52;;;17.60;72.90;;;;;;4900808;29;20037;-76
2023/08/07 08:02:40;;;;;;;2.38;1.50;;;17.70;72.90;;;;;;4902260;29;20049;-75
2023/08/07 08:05:07;;;;;;;2.63;1.27;;;17.70;72.90;;;;;;4901144;29;20037;-75
2023/08/07 08:07:34;;;;;;;1.95;1.30;;;17.70;72.80;;;;;;4901234;29;20033;-76
2023/08/07 08:10:00;;;;;;;2.38;1.48;;;17.70;72.80;;;;;;4885735;29;20032;-76
2023/08/07 08:12:26;;;;;;;2.30;1.30;;;17.80;72.80;;;;;;4901599;29;20044;-76
2023/08/07 08:14:52;;;;;;;1.63;1.25;;;17.80;72.80;;;;;;4902265;29;20471;-76
2023/08/07 08:17:18;;;;;;;2.72;1.40;;;17.80;72.80;;;;;;4900526;29;20036;-76
2023/08/07 08:19:43;;;;;;;1.85;1.45;;;17.80;72.70;;;;;;4884332;29;20056;-77
2023/08/07 08:22:09;;;;;;;4.82;1.90;;;17.90;72.80;;;;;;4915602;29;20053;-76
2023/08/07 08:24:35;;;;;;;2.30;1.35;;;17.90;72.70;;;;;;4899952;29;20067;-77
2023/08/07 08:27:01;;;;;;;3.42;1.58;;;17.90;72.70;;;;;;4916168;29;20040;-76
2023/08/07 08:29:28;;;;;;;2.47;1.30;;;18.00;72.70;;;;;;4885079;29;20040;-75
2023/08/07 08:31:55;;;;;;;1.90;1.70;;;18.00;72.60;;;;;;4900002;29;20497;-77
2023/08/07 08:34:21;;;;;;;3.10;1.67;;;18.00;72.60;;;;;;4900120;29;20076;-76
2023/08/07 08:36:47;;;;;;;2.40;1.40;;;18.10;72.50;;;;;;4900962;29;20064;-77
2023/08/07 08:39:13;;;;;;;2.13;1.40;;;18.10;72.50;;;;;;4915511;29;20135;-75
2023/08/07 08:41:42;;;;;;;1.92;1.27;;;18.20;72.40;;;;;;4900570;29;20462;-76
2023/08/07 08:44:11;;;;;;;3.70;1.83;;;18.20;72.30;;;;;;4900974;29;20040;-76
2023/08/07 08:46:38;;;;;;;3.25;1.60;;;18.20;72.20;;;;;;4901212;29;20488;-76
2023/08/07 08:49:05;;;;;;;3.42;1.65;;;18.30;72.10;;;;;;4899904;29;20054;-76
2023/08/07 08:51:32;;;;;;;6.07;2.00;;;18.30;72.00;;;;;;4899759;29;20024;-77
2023/08/07 08:53:59;;;;;;;2.88;1.80;;;18.40;71.90;;;;;;4899621;29;20035;-76
2023/08/07 08:56:25;;;;;;;2.03;1.50;;;18.40;71.90;;;;;;4899766;29;20033;-77
2023/08/07 08:58:51;;;;;;;2.15;1.52;;;18.50;71.90;;;;;;4869352;29;20041;-75
2023/08/07 09:01:18;;;;;;;2.63;1.60;;;18.60;71.90;;;;;;4914963;29;20096;-76
2023/08/07 09:03:45;;;;;;;3.13;1.60;;;18.50;71.80;;;;;;4914917;29;20048;-77
2023/08/07 09:06:12;;;;;;;3.40;1.90;;;18.60;71.80;;;;;;4899295;29;20040;-76
2023/08/07 09:08:41;;;;;;;2.67;1.90;;;18.60;71.70;;;;;;4899642;29;20029;-76
2023/08/07 09:11:08;;;;;;;2.40;1.70;;;18.60;71.70;;;;;;4900358;29;20103;-76
2023/08/07 09:13:36;;;;;;;2.42;1.50;;;18.60;71.70;;;;;;4899384;29;20044;-76
2023/08/07 09:16:04;;;;;;;2.67;1.67;;;18.70;71.80;;;;;;4883836;29;20036;-76
2023/08/07 09:18:30;;;;;;;2.67;1.58;;;18.70;71.70;;;;;;4900735;29;20474;-77
2023/08/07 09:20:57;;;;;;;2.42;1.60;;;18.70;71.70;;;;;;4899771;29;20032;-76
2023/08/07 09:23:24;;;;;;;3.38;1.63;;;18.70;71.60;;;;;;4900054;29;20170;-76
2023/08/07 09:26:02;;;;;;;3.38;1.50;;;18.70;71.70;;;;;;4899387;29;20132;-76
2023/08/07 09:28:32;;;;;;;1.90;1.50;;;18.80;71.70;;;;;;4899343;29;20043;-77
2023/08/07 09:30:59;;;;;;;2.22;1.52;;;18.80;71.60;;;;;;4883209;29;20048;-78
2023/08/07 09:33:30;;;;;;;2.10;1.50;;;18.80;71.50;;;;;;4899042;29;20033;-77
2023/08/07 09:36:02;;;;;;;2.17;1.80;;;18.80;71.60;;;;;;4898707;29;20039;-77
2023/08/07 09:38:32;;;;;;;2.92;1.70;;;18.90;71.60;;;;;;4914906;29;20040;-77
2023/08/07 09:41:03;;;;;;;2.92;1.63;;;18.90;71.40;;;;;;4898732;29;20471;-77
2023/08/07 09:43:29;;;;;;;2.22;1.60;;;19.00;71.40;;;;;;4898896;29;20397;-76
2023/08/07 09:46:07;;;;;;;2.38;1.48;;;19.00;71.30;;;;;;4883211;29;20069;-76
2023/08/07 09:48:43;;;;;;;3.70;1.77;;;19.00;71.30;;;;;;4898598;29;20123;-76
2023/08/07 09:51:09;;;;;;;2.70;1.40;;;19.10;71.30;;;;;;4899028;29;20033;-77
2023/08/07 09:53:35;;;;;;;2.05;1.40;;;19.20;71.20;;;;;;4898794;29;20087;-78
2023/08/07 09:56:01;;;;;;;4.65;1.80;;;19.20;71.10;;;;;;4898566;29;20123;-77
2023/08/07 09:58:28;;;;;;;2.45;1.45;;;19.30;71.10;;;;;;4898160;29;20077;-76
2023/08/07 10:00:59;;;;;;;3.17;1.58;;;19.30;71.10;;;;;;4898807;29;20033;-76
2023/08/07 10:03:25;;;;;;;1.95;1.23;;;19.30;71.00;;;;;;4898570;29;20124;-77
2023/08/07 10:05:51;;;;;;;2.25;1.33;;;19.30;70.90;;;;;;4898579;29;20040;-76
2023/08/07 10:08:18;;;;;;;1.95;1.33;;;19.40;70.90;;;;;;4898623;29;20526;-77
2023/08/07 10:10:46;;;;;;;3.58;1.42;;;19.40;70.90;;;;;;4898235;29;20094;-75
2023/08/07 10:13:14;;;;;;;2.42;1.50;;;19.50;70.80;;;;;;4899202;29;20040;-76
2023/08/07 10:15:41;;;;;;;3.22;1.60;;;19.50;70.70;;;;;;4913681;29;20033;-76
2023/08/07 10:18:08;;;;;;;2.30;1.55;;;19.60;70.70;;;;;;4898138;29;20051;-76
2023/08/07 10:20:35;;;;;;;2.40;1.40;;;19.60;70.60;;;;;;4897946;29;20423;-77
2023/08/07 10:23:09;;;;;;;2.60;1.60;;;19.70;70.60;;;;;;4897636;29;20061;-76
2023/08/07 10:25:36;;;;;;;;;;;19.80;70.50;;;;;;4898535;29;20041;-76
2023/08/07 10:28:05;;;;;;;1.52;1.40;;;19.80;70.20;;;;;;4898875;29;19958;-75
2023/08/07 10:30:33;;;;;;;2.92;1.60;;;19.90;70.10;;;;;;4898702;29;20115;-76
2023/08/07 10:33:00;;;;;;;2.67;1.40;;;19.90;70.10;;;;;;4898070;29;20035;-76
2023/08/07 10:35:33;;;;;;;2.67;1.50;;;20.00;70.10;;;;;;4898657;29;20441;-76
2023/08/07 10:38:11;;;;;;;2.05;1.60;;;20.00;70.70;;;;;;4898062;29;20131;-76
2023/08/07 10:40:59;;;;;;;2.50;1.65;;;20.10;70.00;;;;;;4897874;29;20116;-76
2023/08/07 10:43:27;;;;;;;2.10;1.25;;;20.10;70.00;;;;;;4913437;29;20044;-76
2023/08/07 10:45:53;;;;;;;2.40;1.60;;;20.20;69.90;;;;;;4883223;29;20104;-76
2023/08/07 10:48:23;;;;;;;2.22;1.50;;;20.20;69.90;;;;;;4914105;29;20033;-76
2023/08/07 10:50:57;;;;;;;2.42;1.60;;;20.30;70.00;;;;;;4897499;29;20462;-76
2023/08/07 10:53:37;;;;;;;3.22;1.75;;;20.30;69.90;;;;;;4913094;29;20047;-76
2023/08/07 10:56:09;;;;;;;3.17;1.48;;;20.30;70.00;;;;;;4898877;29;20031;-76
2023/08/07 10:58:40;;;;;;;2.25;1.27;;;20.40;69.90;;;;;;4898505;29;20040;-77
2023/08/07 11:01:29;;;;;;;2.22;1.45;;;20.40;69.80;;;;;;4913514;29;20032;-77
2023/08/07 11:03:57;;;;;;;3.50;1.50;;;20.40;70.00;;;;;;4890499;29;20099;-76
2023/08/07 11:06:32;;;;;;;1.55;1.17;;;20.40;69.80;;;;;;4897421;29;20037;-76
2023/08/07 11:08:59;;;;;;;2.85;1.60;;;20.40;69.80;;;;;;4899143;29;20043;-77
2023/08/07 11:11:26;;;;;;;3.55;1.60;;;20.50;69.90;;;;;;4897473;29;20028;-75
2023/08/07 11:13:52;;;;;;;3.75;1.50;;;20.50;69.90;;;;;;4896990;29;20413;-77
2023/08/07 11:16:21;;;;;;;1.55;1.30;;;20.50;69.90;;;;;;4882016;29;20041;-76
2023/08/07 11:18:48;;;;;;;2.15;1.20;;;20.50;69.90;;;;;;4897434;29;20061;-76
2023/08/07 11:21:14;;;;;;;2.28;1.40;;;20.60;69.90;;;;;;4896550;29;20123;-78
2023/08/07 11:23:41;;;;;;;2.42;1.35;;;20.60;69.90;;;;;;4897690;29;20478;-76
2023/08/07 11:26:10;;;;;;;2.72;1.33;;;20.60;69.90;;;;;;4897740;29;20064;-76
2023/08/07 11:28:36;;;;;;;1.42;1.30;;;20.60;69.90;;;;;;4899447;29;20044;-77
2023/08/07 11:31:02;;;;;;;1.95;1.30;;;20.60;69.90;;;;;;4883165;29;20419;-76
2023/08/07 11:33:28;;;;;;;1.65;1.50;;;20.70;69.90;;;;;;4898382;29;20221;-76
2023/08/07 11:35:55;;;;;;;2.35;1.55;;;20.70;70.00;;;;;;4898778;29;20048;-77
2023/08/07 11:38:30;;;;;;;2.95;1.40;;;20.70;70.00;;;;;;4900319;29;20055;-77
2023/08/07 11:41:05;;;;;;;2.75;1.50;;;20.70;70.00;;;;;;4897440;29;20100;-76
2023/08/07 11:43:32;;;;;;;1.77;1.40;;;20.70;70.00;;;;;;4897418;29;20120;-76
2023/08/07 11:46:00;;;;;;;2.20;1.30;;;20.70;70.00;;;;;;4897417;29;20041;-76
2023/08/07 11:48:31;;;;;;;2.65;1.40;;;20.80;70.10;;;;;;4897562;29;20036;-76
2023/08/07 11:50:58;;;;;;;3.63;1.38;;;20.80;70.20;;;;;;4896672;29;20088;-76
2023/08/07 11:53:26;;;;;;;2.28;1.20;;;20.80;70.20;;;;;;4896981;29;20067;-76
2023/08/07 11:56:16;;;;;;;4.10;1.55;;;20.80;70.10;;;;;;4881779;29;20036;-77
2023/08/07 11:58:47;;;;;;;1.83;1.13;;;20.80;70.20;;;;;;4898005;29;20059;-77
2023/08/07 12:01:24;;;;;;;2.95;1.77;;;20.90;70.20;;;;;;4881584;29;20025;-76
2023/08/07 12:03:57;;;;;;;1.77;1.40;;;20.90;70.10;;;;;;4897828;29;20091;-76
2023/08/07 12:06:24;;;;;;;1.92;1.30;;;21.00;70.20;;;;;;4898052;29;20066;-77
2023/08/07 12:08:55;;;;;;;1.70;1.30;;;21.00;70.10;;;;;;4898440;29;20040;-76
2023/08/07 12:11:21;;;;;;;1.52;1.27;;;21.00;70.00;;;;;;4913080;29;20092;-75
2023/08/07 12:13:49;;;;;;;3.28;1.40;;;21.00;69.90;;;;;;4897478;29;20040;-78
2023/08/07 12:16:16;;;;;;;1.65;1.40;;;21.00;69.90;;;;;;4881413;29;20035;-76
2023/08/07 12:18:47;;;;;;;1.80;1.33;;;21.10;70.00;;;;;;4896527;29;20036;-80
2023/08/07 12:21:22;;;;;;;2.35;1.20;;;21.10;69.90;;;;;;4897445;29;20068;-78
2023/08/07 12:23:48;;;;;;;2.80;1.52;;;21.10;69.90;;;;;;4912284;29;20044;-78
2023/08/07 12:26:15;;;;;;;1.77;1.20;;;21.10;69.90;;;;;;4896438;29;20033;-78
2023/08/07 12:28:40;;;;;;;1.85;1.30;;;21.10;69.90;;;;;;4896780;29;20040;-78
2023/08/07 12:31:06;;;;;;;1.85;1.60;;;21.10;69.90;;;;;;4896713;29;20096;-77
2023/08/07 12:33:33;;;;;;;2.15;1.35;;;21.10;69.80;;;;;;4899803;29;20040;-75
2023/08/07 12:36:00;;;;;;;2.55;1.40;;;21.20;69.80;;;;;;4900778;29;20028;-77
2023/08/07 12:38:26;;;;;;;2.17;1.30;;;21.20;69.90;;;;;;4884487;29;20085;-75
2023/08/07 12:40:53;;;;;;;3.60;1.60;;;21.20;69.80;;;;;;4915987;29;20032;-76
2023/08/07 12:43:19;;;;;;;1.95;1.33;;;21.20;69.80;;;;;;4915751;29;20040;-76
2023/08/07 12:45:45;;;;;;;1.77;1.45;;;21.20;69.80;;;;;;4899733;29;20478;-78
2023/08/07 12:48:13;;;;;;;1.90;1.30;;;21.20;69.80;;;;;;4899672;29;20054;-76